createdAt,value
2023-03-03T00:01:59.326Z,78.25
2023-03-03T00:04:28.599Z,76.25
2023-03-03T00:06:56.465Z,75.47
2023-03-03T00:09:24.380Z,78.28
2023-03-03T00:11:57.583Z,77.45
2023-03-03T00:14:30.293Z,77.60
2023-03-03T00:16:59.295Z,77.20
2023-03-03T00:19:28.598Z,81.38
2023-03-03T00:21:58.505Z,73.50
2023-03-03T00:24:36.572Z,78.00
2023-03-03T00:29:49.000Z,74.93
2023-03-03T00:32:24.899Z,80.40
2023-03-03T00:34:55.503Z,73.80
2023-03-03T00:37:32.264Z,80.10
2023-03-03T00:40:21.405Z,73.90
2023-03-03T00:42:52.225Z,73.65
2023-03-03T00:45:36.367Z,76.82
2023-03-03T00:48:26.449Z,78.35
2023-03-03T00:50:57.067Z,67.93
2023-03-03T00:53:27.267Z,78.30
2023-03-03T00:55:55.564Z,78.95
2023-03-03T00:58:24.860Z,83.95
2023-03-03T01:00:54.179Z,83.55
2023-03-03T01:03:24.709Z,85.85
2023-03-03T01:05:53.454Z,78.38
2023-03-03T01:08:23.635Z,83.55
2023-03-03T01:10:54.220Z,82.90
2023-03-03T01:13:24.255Z,84.93
2023-03-03T01:15:52.775Z,78.72
2023-03-03T01:18:21.469Z,82.93
2023-03-03T01:20:49.394Z,89.30
2023-03-03T01:23:17.337Z,85.72
2023-03-03T01:25:46.612Z,91.57
2023-03-03T01:28:14.878Z,83.97
2023-03-03T01:30:42.789Z,91.55
2023-03-03T01:33:10.785Z,86.30
2023-03-03T01:35:41.151Z,81.80
2023-03-03T01:38:09.118Z,87.35
2023-03-03T01:40:37.340Z,78.05
2023-03-03T01:43:06.893Z,88.65
2023-03-03T01:45:46.095Z,92.05
2023-03-03T01:48:19.456Z,91.32
2023-03-03T01:50:51.516Z,97.43
2023-03-03T01:53:23.621Z,91.22
2023-03-03T01:55:54.453Z,87.78
2023-03-03T01:58:27.401Z,81.65
2023-03-03T02:01:00.644Z,95.13
2023-03-03T02:03:28.624Z,95.80
2023-03-03T02:06:00.162Z,95.22
2023-03-03T02:08:35.452Z,97.68
2023-03-03T02:11:05.828Z,90.47
2023-03-03T02:13:35.161Z,95.43
2023-03-03T02:16:03.431Z,88.78
2023-03-03T02:18:31.504Z,90.68
2023-03-03T02:21:04.814Z,99.65
2023-03-03T02:23:38.754Z,83.05
2023-03-03T02:26:10.511Z,85.95
2023-03-03T02:28:39.765Z,91.05
2023-03-03T02:31:13.304Z,93.28
2023-03-03T02:33:41.921Z,104.45
2023-03-03T02:36:14.390Z,86.40
2023-03-03T02:38:48.535Z,91.00
2023-03-03T02:41:28.305Z,98.53
2023-03-03T02:44:01.673Z,88.00
2023-03-03T02:46:30.486Z,89.97
2023-03-03T02:48:58.478Z,94.10
2023-03-03T02:51:26.435Z,98.68
2023-03-03T02:53:54.357Z,95.57
2023-03-03T02:56:23.887Z,94.63
2023-03-03T02:58:52.243Z,96.40
2023-03-03T03:01:20.484Z,94.57
2023-03-03T03:03:48.608Z,94.57
2023-03-03T03:06:16.716Z,91.32
2023-03-03T03:08:44.711Z,95.55
2023-03-03T03:11:12.709Z,98.95
2023-03-03T03:13:42.101Z,100.60
2023-03-03T03:16:10.072Z,95.05
2023-03-03T03:18:38.062Z,86.70
2023-03-03T03:21:11.430Z,94.75
2023-03-03T03:23:40.079Z,89.93
2023-03-03T03:26:08.640Z,84.60
2023-03-03T03:28:37.296Z,87.20
2023-03-03T03:31:08.192Z,89.68
2023-03-03T03:33:36.754Z,81.93
2023-03-03T03:36:06.454Z,87.30
2023-03-03T03:38:36.693Z,83.85
2023-03-03T03:41:06.296Z,80.32
2023-03-03T03:43:34.299Z,76.82
2023-03-03T03:46:02.365Z,90.80
2023-03-03T03:48:31.662Z,78.80
2023-03-03T03:50:59.552Z,80.95
2023-03-03T03:53:27.751Z,85.15
2023-03-03T03:55:55.919Z,83.25
2023-03-03T03:58:23.916Z,85.40
2023-03-03T04:00:51.937Z,72.95
2023-03-03T04:03:20.198Z,85.20
2023-03-03T04:05:51.100Z,77.15
2023-03-03T04:08:19.055Z,78.47
2023-03-03T04:10:46.967Z,78.07
2023-03-03T04:13:14.968Z,78.05
2023-03-03T04:15:43.154Z,76.18
2023-03-03T04:18:11.132Z,74.05
2023-03-03T04:20:41.387Z,75.15
2023-03-03T04:23:10.775Z,78.47
2023-03-03T04:25:38.699Z,84.32
2023-03-03T04:28:06.677Z,84.88
2023-03-03T04:30:34.604Z,87.38
2023-03-03T04:33:02.478Z,76.57
2023-03-03T04:35:30.445Z,85.18
2023-03-03T04:37:58.411Z,84.05
2023-03-03T04:40:31.321Z,82.15
2023-03-03T04:42:59.213Z,71.68
2023-03-03T04:45:27.224Z,80.07
2023-03-03T04:47:55.123Z,80.28
2023-03-03T04:50:23.024Z,80.60
2023-03-03T04:52:51.061Z,85.40
2023-03-03T04:55:19.087Z,72.65
2023-03-03T04:57:48.290Z,77.45
2023-03-03T05:00:16.875Z,77.05
2023-03-03T05:02:44.756Z,88.07
2023-03-03T05:05:13.695Z,82.80
2023-03-03T05:07:41.840Z,92.30
2023-03-03T05:10:11.172Z,84.05
2023-03-03T05:12:39.162Z,81.07
2023-03-03T05:15:09.620Z,81.00
2023-03-03T05:17:37.815Z,77.88
2023-03-03T05:20:08.439Z,78.78
2023-03-03T05:22:36.388Z,85.47
2023-03-03T05:25:04.517Z,85.85
2023-03-03T05:27:32.557Z,80.10
2023-03-03T05:30:00.444Z,89.13
2023-03-03T05:32:29.721Z,86.20
2023-03-03T05:34:57.668Z,83.85
2023-03-03T05:37:25.656Z,82.93
2023-03-03T05:39:53.561Z,80.40
2023-03-03T05:42:21.945Z,87.80
2023-03-03T05:44:49.992Z,80.28
2023-03-03T05:47:20.762Z,81.75
2023-03-03T05:49:50.041Z,82.05
2023-03-03T05:52:17.921Z,77.53
2023-03-03T05:54:45.948Z,76.82
2023-03-03T05:57:13.822Z,85.05
2023-03-03T05:59:41.773Z,83.38
2023-03-03T06:02:09.716Z,83.85
2023-03-03T06:04:37.723Z,81.35
2023-03-03T06:07:07.363Z,73.38
2023-03-03T06:09:35.276Z,86.35
2023-03-03T06:12:03.442Z,76.55
2023-03-03T06:14:31.541Z,82.93
2023-03-03T06:16:59.401Z,80.43
2023-03-03T06:19:27.775Z,80.72
2023-03-03T06:21:55.737Z,76.45
2023-03-03T06:24:25.352Z,78.50
2023-03-03T06:26:53.405Z,83.80
2023-03-03T06:29:21.296Z,75.68
2023-03-03T06:31:49.251Z,82.63
2023-03-03T06:34:17.281Z,71.50
2023-03-03T06:36:45.192Z,68.32
2023-03-03T06:39:13.382Z,77.78
2023-03-03T06:41:42.898Z,75.38
2023-03-03T06:44:11.895Z,78.65
2023-03-03T06:46:39.809Z,74.25
2023-03-03T06:49:07.800Z,81.18
2023-03-03T06:51:39.766Z,81.70
2023-03-03T06:54:12.899Z,78.93
2023-03-03T06:56:43.120Z,80.88
2023-03-03T06:59:14.588Z,73.63
2023-03-03T07:01:43.174Z,83.30
2023-03-03T07:04:23.147Z,77.47
2023-03-03T07:06:51.038Z,86.70
2023-03-03T07:09:22.262Z,80.32
2023-03-03T07:11:52.077Z,80.22
2023-03-03T07:14:21.469Z,89.47
2023-03-03T07:16:57.181Z,82.85
2023-03-03T07:19:31.020Z,81.00
2023-03-03T07:21:59.267Z,81.63
2023-03-03T07:24:29.342Z,85.93
2023-03-03T07:27:07.547Z,85.68
2023-03-03T07:29:35.736Z,78.13
2023-03-03T07:32:04.487Z,95.78
2023-03-03T07:34:38.988Z,76.00
2023-03-03T07:37:16.733Z,87.15
2023-03-03T07:39:46.695Z,82.82
2023-03-03T07:42:23.375Z,77.63
2023-03-03T07:44:53.322Z,71.72
2023-03-03T07:47:25.345Z,74.68
2023-03-03T07:49:55.549Z,74.18
2023-03-03T07:52:27.975Z,80.88
2023-03-03T07:54:57.969Z,73.78
2023-03-03T07:57:31.519Z,81.78
2023-03-03T08:00:10.716Z,73.10
2023-03-03T08:02:42.437Z,78.18
2023-03-03T08:05:32.948Z,72.30
2023-03-03T08:08:17.968Z,76.35
2023-03-03T08:10:49.273Z,77.00
2023-03-03T08:13:23.325Z,80.85
2023-03-03T08:15:53.776Z,68.10
2023-03-03T08:18:25.592Z,74.05
2023-03-03T08:20:56.098Z,72.30
2023-03-03T08:23:24.061Z,78.55
2023-03-03T08:25:53.241Z,71.05
2023-03-03T08:28:23.437Z,67.30
2023-03-03T08:30:54.372Z,65.30
2023-03-03T08:33:28.352Z,70.72
2023-03-03T08:35:56.377Z,65.70
2023-03-03T08:38:24.905Z,65.80
2023-03-03T08:40:52.881Z,68.28
2023-03-03T08:43:22.841Z,74.20
2023-03-03T08:45:52.424Z,77.72
2023-03-03T08:48:20.972Z,62.22
2023-03-03T08:50:49.073Z,58.25
2023-03-03T08:53:17.925Z,54.20
2023-03-03T08:55:46.411Z,57.60
2023-03-03T08:58:14.427Z,52.90
2023-03-03T09:00:43.822Z,48.42
2023-03-03T09:03:11.701Z,47.45
2023-03-03T09:05:40.884Z,59.22
2023-03-03T09:08:10.707Z,48.88
2023-03-03T09:10:39.079Z,54.33
2023-03-03T09:13:13.455Z,63.22
2023-03-03T09:15:43.023Z,49.13
2023-03-03T09:18:17.302Z,51.53
2023-03-03T09:20:47.403Z,47.95
2023-03-03T09:23:35.661Z,55.47
2023-03-03T09:26:26.987Z,60.13
2023-03-03T09:28:56.440Z,56.58
2023-03-03T09:31:35.101Z,53.03
2023-03-03T09:34:04.709Z,60.05
2023-03-03T09:36:38.261Z,65.78
2023-03-03T09:39:18.608Z,58.03
2023-03-03T09:42:33.022Z,56.17
2023-03-03T09:45:26.188Z,57.67
2023-03-03T09:48:35.912Z,56.78
2023-03-03T09:51:30.444Z,61.75
2023-03-03T09:54:18.817Z,53.28
2023-03-03T09:56:52.553Z,57.38
2023-03-03T09:59:35.849Z,56.92
2023-03-03T10:02:26.956Z,57.22
2023-03-03T10:05:16.130Z,53.03
2023-03-03T10:07:53.348Z,55.95
2023-03-03T10:10:39.906Z,50.33
2023-03-03T10:13:19.051Z,56.05
2023-03-03T10:16:02.932Z,55.35
2023-03-03T10:18:34.235Z,53.15
2023-03-03T10:21:11.801Z,54.00
2023-03-03T10:23:59.174Z,53.05
2023-03-03T10:26:45.796Z,57.15
2023-03-03T10:29:37.553Z,50.60
2023-03-03T10:32:23.312Z,62.85
2023-03-03T10:35:04.147Z,57.97
2023-03-03T10:37:45.281Z,57.22
2023-03-03T10:40:22.168Z,57.55
2023-03-03T10:43:31.038Z,51.92
2023-03-03T10:46:21.774Z,54.83
2023-03-03T10:49:16.912Z,53.55
2023-03-03T10:52:00.130Z,46.85
2023-03-03T10:54:44.882Z,50.40
2023-03-03T10:57:23.138Z,53.00
2023-03-03T11:00:05.489Z,49.10
2023-03-03T11:02:44.222Z,53.88
2023-03-03T11:05:30.043Z,50.28
2023-03-03T11:08:02.445Z,52.67
2023-03-03T11:10:43.334Z,53.70
2023-03-03T11:13:19.176Z,51.08
2023-03-03T11:16:00.845Z,44.92
2023-03-03T11:18:53.537Z,46.50
2023-03-03T11:21:27.482Z,46.90
2023-03-03T11:24:03.325Z,50.83
2023-03-03T11:26:48.844Z,43.70
2023-03-03T11:29:30.751Z,51.28
2023-03-03T11:32:03.722Z,45.55
2023-03-03T11:34:54.281Z,42.95
2023-03-03T11:37:28.862Z,45.38
2023-03-03T11:40:01.481Z,50.17
2023-03-03T11:42:40.393Z,46.80
2023-03-03T11:45:19.078Z,49.47
2023-03-03T11:47:55.031Z,55.15
2023-03-03T11:50:26.931Z,40.55
2023-03-03T11:53:03.018Z,41.17
2023-03-03T11:55:37.138Z,47.70
2023-03-03T11:58:14.979Z,50.63
2023-03-03T12:00:48.629Z,47.80
2023-03-03T12:03:27.651Z,51.78
2023-03-03T12:06:18.407Z,43.50
2023-03-03T12:09:03.376Z,45.22
2023-03-03T12:11:40.497Z,40.45
2023-03-03T12:14:17.427Z,46.33
2023-03-03T12:16:55.466Z,42.28
2023-03-03T12:19:34.674Z,45.30
2023-03-03T12:22:33.694Z,46.55
2023-03-03T12:25:20.680Z,46.92
2023-03-03T12:27:55.718Z,47.80
2023-03-03T12:30:40.955Z,44.72
2023-03-03T12:33:22.290Z,43.38
2023-03-03T12:36:00.600Z,44.63
2023-03-03T12:38:39.581Z,40.08
2023-03-03T12:41:14.693Z,41.03
2023-03-03T12:43:54.105Z,41.60
2023-03-03T12:46:35.556Z,41.50
2023-03-03T12:49:03.614Z,38.50
2023-03-03T12:51:40.095Z,43.35
2023-03-03T12:54:37.000Z,40.53
2023-03-03T12:57:14.909Z,38.80
2023-03-03T12:59:52.869Z,34.47
2023-03-03T13:05:11.359Z,35.83
2023-03-03T13:07:46.106Z,37.97
2023-03-03T13:10:20.794Z,35.90
2023-03-03T13:12:52.425Z,29.73
2023-03-03T13:15:31.635Z,35.00
2023-03-03T13:18:26.895Z,29.85
2023-03-03T13:21:00.944Z,28.83
2023-03-03T13:23:45.248Z,26.75
2023-03-03T13:26:18.306Z,31.52
2023-03-03T13:28:57.880Z,28.00
2023-03-03T13:31:33.130Z,28.17
2023-03-03T13:34:03.504Z,27.15
2023-03-03T13:36:40.056Z,26.85
2023-03-03T13:39:18.975Z,35.67
2023-03-03T13:41:51.893Z,32.10
2023-03-03T13:44:26.412Z,30.23
2023-03-03T13:47:04.317Z,34.22
2023-03-03T13:49:47.869Z,26.60
2023-03-03T13:52:22.204Z,34.13
2023-03-03T13:54:58.033Z,32.17
2023-03-03T13:57:38.480Z,31.08
2023-03-03T14:00:21.158Z,29.35
2023-03-03T14:03:18.150Z,30.08
2023-03-03T14:05:50.017Z,34.05
2023-03-03T14:08:36.621Z,32.13
2023-03-03T14:11:11.752Z,27.38
2023-03-03T14:13:51.588Z,38.05
2023-03-03T14:16:30.878Z,35.42
2023-03-03T14:19:04.030Z,35.72
2023-03-03T14:21:39.594Z,30.42
2023-03-03T14:24:15.967Z,40.65
2023-03-03T14:26:49.561Z,38.13
2023-03-03T14:29:30.984Z,38.78
2023-03-03T14:32:01.535Z,33.80
2023-03-03T14:34:39.310Z,36.70
2023-03-03T14:37:24.666Z,43.53
2023-03-03T14:40:02.834Z,44.85
2023-03-03T14:45:04.623Z,37.13
2023-03-03T14:47:32.795Z,40.85
2023-03-03T14:50:00.959Z,42.83
2023-03-03T14:52:33.963Z,43.10
2023-03-03T14:55:22.838Z,36.75
2023-03-03T14:57:51.637Z,39.83
2023-03-03T15:00:34.684Z,39.72
2023-03-03T15:03:19.526Z,35.90
2023-03-03T15:05:51.326Z,47.55
2023-03-03T15:08:31.816Z,45.55
2023-03-03T15:11:15.169Z,46.65
2023-03-03T15:13:43.200Z,48.22
2023-03-03T15:16:16.881Z,43.95
2023-03-03T15:19:15.420Z,43.10
2023-03-03T15:21:53.698Z,39.17
2023-03-03T15:24:32.762Z,45.28
2023-03-03T15:27:06.059Z,43.80
2023-03-03T15:29:39.317Z,45.78
2023-03-03T15:32:13.676Z,46.40
2023-03-03T15:34:45.406Z,45.40
2023-03-03T15:37:29.675Z,49.75
2023-03-03T15:40:06.267Z,47.08
2023-03-03T15:42:39.335Z,50.72
2023-03-03T15:45:16.013Z,43.00
2023-03-03T15:48:07.578Z,41.95
2023-03-03T15:50:46.566Z,46.10
2023-03-03T15:53:27.739Z,46.20
2023-03-03T15:56:11.055Z,48.17
2023-03-03T15:59:27.051Z,43.60
2023-03-03T16:02:06.842Z,49.55
2023-03-03T16:04:39.028Z,48.13
2023-03-03T16:07:15.043Z,50.67
2023-03-03T16:09:53.896Z,49.58
2023-03-03T16:12:31.416Z,48.03
2023-03-03T16:15:16.234Z,51.17
2023-03-03T16:17:50.605Z,48.67
2023-03-03T16:20:23.645Z,48.25
2023-03-03T16:23:17.567Z,56.45
2023-03-03T16:26:00.372Z,49.53
2023-03-03T16:28:39.289Z,54.15
2023-03-03T16:31:12.900Z,53.72
2023-03-03T16:33:48.365Z,53.63
2023-03-03T16:36:28.300Z,54.05
2023-03-03T16:39:03.897Z,51.17
2023-03-03T16:41:40.855Z,57.92
2023-03-03T16:44:24.594Z,51.53
2023-03-03T16:46:53.231Z,55.85
2023-03-03T16:49:30.887Z,50.42
2023-03-03T16:52:07.119Z,61.00
2023-03-03T16:54:40.421Z,58.20
2023-03-03T16:57:18.455Z,55.53
2023-03-03T17:00:04.120Z,56.17
2023-03-03T17:03:04.423Z,55.25
2023-03-03T17:05:42.831Z,65.90
2023-03-03T17:08:43.132Z,50.90
2023-03-03T17:11:19.080Z,56.53
2023-03-03T17:14:13.197Z,58.83
2023-03-03T17:16:53.189Z,57.83
2023-03-03T17:19:35.430Z,56.53
2023-03-03T17:22:15.624Z,58.67
2023-03-03T17:24:56.297Z,60.70
2023-03-03T17:27:33.349Z,59.85
2023-03-03T17:30:11.670Z,54.10
2023-03-03T17:33:17.316Z,56.60
2023-03-03T17:35:58.212Z,61.25
2023-03-03T17:38:38.881Z,60.20
2023-03-03T17:41:12.220Z,57.13
2023-03-03T17:43:49.185Z,60.17
2023-03-03T17:46:27.525Z,62.88
2023-03-03T17:49:26.741Z,57.40
2023-03-03T17:52:35.554Z,59.25
2023-03-03T17:55:32.373Z,56.42
2023-03-03T17:58:17.020Z,54.83
2023-03-03T18:00:59.152Z,60.75
2023-03-03T18:04:16.523Z,67.22
2023-03-03T18:07:10.850Z,63.10
2023-03-03T18:09:58.304Z,62.03
2023-03-03T18:12:38.951Z,66.13
2023-03-03T18:15:28.265Z,60.38
2023-03-03T18:18:10.807Z,66.93
2023-03-03T18:20:49.660Z,66.38
2023-03-03T18:23:31.311Z,59.50
2023-03-03T18:26:00.995Z,59.85
2023-03-03T18:28:46.136Z,73.22
2023-03-03T18:31:24.463Z,66.30
2023-03-03T18:34:27.765Z,72.40
2023-03-03T18:36:57.149Z,67.80
2023-03-03T18:39:43.235Z,73.40
2023-03-03T18:42:32.110Z,66.57
2023-03-03T18:45:12.148Z,77.07
2023-03-03T18:48:04.597Z,72.90
2023-03-03T18:50:34.184Z,76.82
2023-03-03T18:53:29.799Z,74.22
2023-03-03T18:56:00.566Z,79.32
2023-03-03T18:58:41.330Z,78.03
2023-03-03T19:01:41.666Z,67.75
2023-03-03T19:04:23.518Z,72.53
2023-03-03T19:07:26.828Z,71.55
2023-03-03T19:10:01.818Z,69.18
2023-03-03T19:12:52.125Z,78.78
2023-03-03T19:15:51.955Z,76.50
2023-03-03T19:18:23.739Z,73.82
2023-03-03T19:20:57.331Z,81.32
2023-03-03T19:23:35.289Z,71.15
2023-03-03T19:26:42.128Z,77.60
2023-03-03T19:29:24.328Z,83.82
2023-03-03T19:31:59.499Z,85.07
2023-03-03T19:34:33.508Z,83.53
2023-03-03T19:37:17.263Z,85.38
2023-03-03T19:39:54.404Z,83.03
2023-03-03T19:42:35.636Z,84.13
2023-03-03T19:45:18.074Z,80.03
2023-03-03T19:47:49.194Z,83.28
2023-03-03T19:50:29.818Z,85.13
2023-03-03T19:53:07.520Z,82.60
2023-03-03T19:55:45.487Z,84.85
2023-03-03T19:58:26.138Z,83.63
2023-03-03T20:01:08.384Z,83.68
2023-03-03T20:04:03.298Z,83.85
2023-03-03T20:06:43.562Z,85.85
2023-03-03T20:09:24.787Z,86.75
2023-03-03T20:12:06.372Z,79.05
2023-03-03T20:14:45.950Z,86.10
2023-03-03T20:17:44.995Z,79.65
2023-03-03T20:20:35.672Z,93.22
2023-03-03T20:23:11.846Z,91.97
2023-03-03T20:25:44.516Z,87.63
2023-03-03T20:28:31.767Z,81.97
2023-03-03T20:31:07.410Z,89.10
2023-03-03T20:33:50.436Z,85.00
2023-03-03T20:36:27.318Z,83.40
2023-03-03T20:39:05.436Z,87.97
2023-03-03T20:44:20.031Z,89.50
2023-03-03T20:46:59.196Z,88.72
2023-03-03T20:49:57.172Z,87.10
2023-03-03T20:52:35.925Z,91.25
2023-03-03T20:55:14.995Z,84.55
2023-03-03T20:57:52.903Z,85.82
2023-03-03T21:00:26.166Z,89.20
2023-03-03T21:03:02.474Z,83.45
2023-03-03T21:05:31.996Z,84.20
2023-03-03T21:08:02.325Z,88.95
2023-03-03T21:10:33.836Z,83.90
2023-03-03T21:13:26.192Z,84.35
2023-03-03T21:16:03.339Z,83.97
2023-03-03T21:18:31.800Z,81.23
2023-03-03T21:21:08.273Z,80.80
2023-03-03T21:23:36.342Z,79.93
2023-03-03T21:26:04.387Z,80.53
2023-03-03T21:28:33.574Z,80.43
2023-03-03T21:31:11.252Z,86.55
2023-03-03T21:33:48.172Z,83.15
2023-03-03T21:36:19.264Z,77.93
2023-03-03T21:38:48.613Z,96.75
2023-03-03T21:41:18.328Z,96.60
2023-03-03T21:43:47.863Z,77.63
2023-03-03T21:46:19.684Z,84.30
2023-03-03T21:48:47.966Z,78.65
2023-03-03T21:51:17.518Z,94.43
2023-03-03T21:53:46.030Z,96.07
2023-03-03T21:56:15.126Z,81.97
2023-03-03T21:58:43.213Z,94.20
2023-03-03T22:01:11.285Z,82.55
2023-03-03T22:03:39.179Z,91.45
2023-03-03T22:06:07.811Z,77.18
2023-03-03T22:08:37.052Z,87.35
2023-03-03T22:11:05.648Z,74.20
2023-03-03T22:13:33.553Z,83.25
2023-03-03T22:16:01.521Z,76.88
2023-03-03T22:18:29.414Z,80.25
2023-03-03T22:20:57.315Z,89.63
2023-03-03T22:23:25.582Z,85.85
2023-03-03T22:25:54.828Z,84.35
2023-03-03T22:28:22.769Z,85.63
2023-03-03T22:30:50.727Z,86.50
2023-03-03T22:33:18.745Z,80.68
2023-03-03T22:35:46.792Z,81.80
2023-03-03T22:38:15.024Z,83.80
2023-03-03T22:40:43.024Z,80.68
2023-03-03T22:43:14.580Z,80.05
2023-03-03T22:45:42.556Z,82.25
2023-03-03T22:48:10.525Z,83.07
2023-03-03T22:50:40.273Z,81.22
2023-03-03T22:53:08.477Z,76.82
2023-03-03T22:55:37.042Z,82.93
2023-03-03T22:58:07.458Z,81.30
2023-03-03T23:00:39.168Z,78.22
2023-03-03T23:03:07.386Z,76.55
2023-03-03T23:05:35.799Z,77.60
2023-03-03T23:08:04.593Z,86.03
2023-03-03T23:10:32.592Z,86.38
2023-03-03T23:13:00.570Z,78.70
2023-03-03T23:15:28.536Z,81.20
2023-03-03T23:17:57.893Z,78.63
2023-03-03T23:20:28.354Z,81.75
2023-03-03T23:22:56.916Z,87.95
2023-03-03T23:25:25.576Z,76.78
2023-03-03T23:27:54.062Z,78.38
2023-03-03T23:30:22.830Z,91.18
2023-03-03T23:32:52.021Z,89.60
2023-03-03T23:35:21.814Z,82.22
2023-03-03T23:37:49.846Z,77.43
2023-03-03T23:40:19.044Z,79.93
2023-03-03T23:42:46.940Z,79.75
2023-03-03T23:45:15.236Z,82.10
2023-03-03T23:47:43.360Z,76.43
2023-03-03T23:50:14.039Z,81.43
2023-03-03T23:52:43.302Z,74.68
2023-03-03T23:55:11.789Z,75.88
2023-03-03T23:57:39.680Z,80.15
